createdAt,value
2023-02-11T00:01:12.418Z,40.47
2023-02-11T00:03:46.035Z,39.07
2023-02-11T00:06:20.289Z,39.57
2023-02-11T00:08:54.261Z,40.60
2023-02-11T00:11:31.178Z,38.27
2023-02-11T00:14:08.379Z,39.90
2023-02-11T00:16:42.570Z,41.23
2023-02-11T00:19:16.611Z,40.87
2023-02-11T00:21:50.586Z,42.53
2023-02-11T00:24:24.747Z,40.10
2023-02-11T00:26:58.342Z,39.10
2023-02-11T00:29:31.947Z,41.13
2023-02-11T00:32:06.160Z,39.47
2023-02-11T00:34:40.221Z,40.40
2023-02-11T00:37:14.081Z,37.83
2023-02-11T00:39:50.442Z,40.43
2023-02-11T00:42:24.440Z,38.90
2023-02-11T00:44:58.313Z,41.20
2023-02-11T00:47:32.505Z,39.93
2023-02-11T00:50:08.528Z,39.80
2023-02-11T00:52:42.793Z,40.27
2023-02-11T00:55:17.252Z,41.17
2023-02-11T00:57:51.939Z,38.57
2023-02-11T01:00:25.778Z,38.40
2023-02-11T01:02:59.781Z,35.17
2023-02-11T01:05:33.895Z,37.73
2023-02-11T01:08:08.712Z,39.30
2023-02-11T01:10:44.292Z,36.53
2023-02-11T01:13:17.869Z,38.03
2023-02-11T01:15:51.591Z,38.10
2023-02-11T01:18:25.542Z,38.57
2023-02-11T01:20:59.689Z,39.63
2023-02-11T01:23:33.913Z,40.80
2023-02-11T01:26:08.421Z,37.97
2023-02-11T01:28:42.327Z,40.27
2023-02-11T01:31:15.858Z,39.97
2023-02-11T01:33:49.307Z,38.70
2023-02-11T01:36:23.745Z,37.47
2023-02-11T01:38:57.366Z,37.67
2023-02-11T01:41:32.171Z,40.67
2023-02-11T01:44:27.039Z,39.23
2023-02-11T01:47:01.172Z,42.53
2023-02-11T01:49:37.913Z,42.10
2023-02-11T01:52:16.419Z,42.00
2023-02-11T01:55:11.366Z,40.60
2023-02-11T01:57:48.744Z,36.47
2023-02-11T02:00:26.880Z,38.77
2023-02-11T02:03:06.383Z,38.43
2023-02-11T02:05:46.790Z,35.37
2023-02-11T02:08:24.760Z,38.17
2023-02-11T02:11:01.075Z,36.20
2023-02-11T02:13:36.285Z,37.83
2023-02-11T02:16:14.377Z,36.73
2023-02-11T02:18:57.988Z,37.67
2023-02-11T02:22:00.864Z,35.13
2023-02-11T02:25:01.535Z,36.35
2023-02-11T02:27:46.360Z,37.93
2023-02-11T02:30:58.984Z,38.20
2023-02-11T02:33:44.359Z,37.17
2023-02-11T02:36:25.333Z,37.17
2023-02-11T02:39:03.128Z,37.53
2023-02-11T02:41:39.413Z,34.60
2023-02-11T02:44:13.353Z,33.40
2023-02-11T02:46:47.535Z,34.47
2023-02-11T02:49:21.711Z,36.40
2023-02-11T02:52:13.743Z,33.73
2023-02-11T02:55:08.850Z,36.60
2023-02-11T02:57:58.437Z,36.37
2023-02-11T03:00:38.663Z,34.33
2023-02-11T03:03:25.013Z,34.87
2023-02-11T03:06:05.179Z,36.27
2023-02-11T03:08:45.278Z,35.83
2023-02-11T03:11:21.808Z,34.77
2023-02-11T03:13:57.604Z,36.57
2023-02-11T03:16:36.495Z,36.00
2023-02-11T03:19:15.020Z,36.67
2023-02-11T03:21:51.861Z,35.97
2023-02-11T03:24:30.776Z,33.43
2023-02-11T03:27:09.650Z,36.10
2023-02-11T03:29:52.056Z,34.27
2023-02-11T03:32:30.339Z,33.57
2023-02-11T03:35:09.318Z,35.50
2023-02-11T03:37:50.259Z,36.47
2023-02-11T03:40:27.671Z,36.07
2023-02-11T03:43:05.012Z,36.23
2023-02-11T03:45:40.975Z,36.47
2023-02-11T03:48:20.572Z,36.03
2023-02-11T03:50:56.831Z,36.50
2023-02-11T03:53:30.970Z,34.47
2023-02-11T03:56:09.421Z,34.90
2023-02-11T03:58:45.620Z,35.30
2023-02-11T04:01:19.443Z,34.73
2023-02-11T04:03:53.084Z,37.17
2023-02-11T04:06:27.297Z,34.87
2023-02-11T04:09:01.094Z,35.47
2023-02-11T04:11:35.182Z,34.93
2023-02-11T04:14:09.517Z,34.97
2023-02-11T04:16:43.293Z,33.77
2023-02-11T04:19:17.124Z,37.20
2023-02-11T04:21:51.343Z,35.47
2023-02-11T04:24:25.764Z,37.07
2023-02-11T04:26:59.432Z,34.70
2023-02-11T04:29:33.537Z,38.03
2023-02-11T04:32:07.239Z,36.97
2023-02-11T04:34:41.821Z,36.73
2023-02-11T04:37:16.673Z,36.73
2023-02-11T04:39:50.834Z,35.57
2023-02-11T04:42:25.307Z,36.37
2023-02-11T04:44:59.180Z,36.20
2023-02-11T04:47:32.872Z,40.03
2023-02-11T04:50:07.175Z,36.03
2023-02-11T04:52:40.974Z,37.73
2023-02-11T04:55:15.162Z,38.60
2023-02-11T04:57:48.954Z,38.00
2023-02-11T05:00:22.813Z,37.00
2023-02-11T05:02:57.114Z,38.87
2023-02-11T05:05:31.168Z,38.13
2023-02-11T05:08:05.334Z,39.43
2023-02-11T05:10:39.604Z,39.00
2023-02-11T05:13:13.965Z,37.57
2023-02-11T05:15:46.852Z,37.10
2023-02-11T05:18:20.769Z,37.30
2023-02-11T05:20:54.358Z,38.10
2023-02-11T05:23:28.385Z,37.67
2023-02-11T05:26:02.369Z,40.00
2023-02-11T05:28:36.298Z,39.40
2023-02-11T05:31:10.566Z,39.53
2023-02-11T05:33:44.571Z,45.00
2023-02-11T05:36:19.044Z,46.45
2023-02-11T05:38:53.263Z,46.30
2023-02-11T05:41:27.237Z,46.93
2023-02-11T05:44:01.452Z,47.00
2023-02-11T05:46:35.145Z,44.73
2023-02-11T05:49:09.057Z,43.60
2023-02-11T05:51:42.955Z,43.47
2023-02-11T05:54:17.121Z,44.17
2023-02-11T05:56:51.901Z,45.63
2023-02-11T05:59:26.729Z,46.27
2023-02-11T06:02:00.822Z,50.03
2023-02-11T06:04:35.154Z,49.77
2023-02-11T06:07:09.235Z,48.53
2023-02-11T06:09:43.082Z,45.53
2023-02-11T06:12:17.387Z,45.10
2023-02-11T06:14:51.802Z,44.73
2023-02-11T06:17:26.400Z,39.77
2023-02-11T06:20:01.037Z,39.97
2023-02-11T06:22:35.078Z,42.77
2023-02-11T06:25:11.434Z,44.20
2023-02-11T06:27:44.922Z,47.77
2023-02-11T06:30:19.805Z,44.50
2023-02-11T06:32:53.660Z,45.10
2023-02-11T06:35:27.967Z,44.43
2023-02-11T06:38:01.979Z,43.70
2023-02-11T06:40:36.596Z,47.73
2023-02-11T06:43:10.713Z,46.40
2023-02-11T06:45:44.412Z,46.80
2023-02-11T06:48:17.862Z,49.23
2023-02-11T06:50:52.220Z,47.07
2023-02-11T06:53:26.025Z,48.60
2023-02-11T06:56:03.266Z,49.43
2023-02-11T06:58:37.283Z,45.13
2023-02-11T07:01:14.608Z,44.57
2023-02-11T07:03:48.895Z,44.87
2023-02-11T07:06:24.878Z,44.03
2023-02-11T07:08:59.497Z,41.63
2023-02-11T07:11:34.687Z,42.00
2023-02-11T07:14:09.887Z,45.50
2023-02-11T07:16:43.368Z,46.77
2023-02-11T07:19:17.781Z,46.23
2023-02-11T07:21:51.588Z,49.03
2023-02-11T07:24:25.395Z,47.47
2023-02-11T07:26:59.875Z,45.93
2023-02-11T07:29:33.887Z,45.23
2023-02-11T07:32:07.878Z,45.33
2023-02-11T07:34:41.893Z,49.30
2023-02-11T07:37:16.254Z,46.50
2023-02-11T07:39:50.473Z,45.67
2023-02-11T07:42:24.471Z,47.50
2023-02-11T07:44:58.177Z,47.57
2023-02-11T07:47:32.299Z,47.07
2023-02-11T07:50:07.121Z,50.37
2023-02-11T07:52:41.200Z,47.10
2023-02-11T07:55:15.543Z,48.83
2023-02-11T07:57:49.157Z,49.20
2023-02-11T08:00:23.761Z,47.90
2023-02-11T08:02:58.658Z,49.60
2023-02-11T08:05:33.214Z,46.93
2023-02-11T08:08:07.663Z,48.90
2023-02-11T08:10:41.635Z,50.67
2023-02-11T08:13:15.715Z,52.27
2023-02-11T08:15:48.925Z,52.23
2023-02-11T08:18:22.806Z,55.30
2023-02-11T08:20:57.468Z,53.67
2023-02-11T08:23:31.266Z,56.33
2023-02-11T08:26:07.171Z,54.83
2023-02-11T08:28:42.507Z,55.33
2023-02-11T08:31:19.269Z,55.10
2023-02-11T08:33:54.814Z,55.30
2023-02-11T08:36:30.233Z,55.63
2023-02-11T08:39:17.950Z,53.17
2023-02-11T08:41:54.629Z,55.27
2023-02-11T08:44:28.594Z,59.90
2023-02-11T08:47:02.535Z,53.97
2023-02-11T08:49:36.656Z,55.03
2023-02-11T08:52:10.548Z,53.80
2023-02-11T08:54:44.426Z,57.23
2023-02-11T08:57:17.539Z,50.63
2023-02-11T08:59:50.727Z,50.53
2023-02-11T09:02:23.948Z,47.33
2023-02-11T09:04:57.107Z,49.07
2023-02-11T09:07:30.297Z,48.67
2023-02-11T09:10:03.893Z,48.87
2023-02-11T09:12:36.689Z,46.93
2023-02-11T09:15:11.715Z,48.93
2023-02-11T09:17:44.486Z,48.23
2023-02-11T09:20:18.085Z,50.57
2023-02-11T09:22:51.076Z,51.00
2023-02-11T09:25:24.272Z,50.65
2023-02-11T09:27:56.867Z,53.10
2023-02-11T09:30:30.009Z,53.20
2023-02-11T09:33:03.845Z,54.05
2023-02-11T09:35:36.885Z,53.70
2023-02-11T09:38:10.210Z,52.10
2023-02-11T09:40:45.927Z,50.00
2023-02-11T09:43:21.509Z,51.20
2023-02-11T09:45:56.242Z,48.85
2023-02-11T09:48:29.670Z,46.00
2023-02-11T09:51:02.864Z,47.15
2023-02-11T09:53:38.510Z,45.37
2023-02-11T09:56:14.294Z,47.00
2023-02-11T09:58:47.614Z,46.93
2023-02-11T10:01:32.279Z,47.20
2023-02-11T10:04:06.729Z,45.43
2023-02-11T10:06:41.401Z,47.35
2023-02-11T10:09:26.987Z,44.43
2023-02-11T10:12:04.608Z,44.23
2023-02-11T10:14:51.190Z,42.17
2023-02-11T10:17:28.006Z,40.53
2023-02-11T10:20:09.646Z,41.90
2023-02-11T10:22:45.093Z,38.87
2023-02-11T10:25:22.653Z,38.60
2023-02-11T10:27:57.077Z,40.70
2023-02-11T10:30:32.477Z,38.47
2023-02-11T10:33:08.761Z,35.00
2023-02-11T10:35:44.148Z,35.45
2023-02-11T10:38:17.130Z,35.55
2023-02-11T10:40:50.575Z,36.50
2023-02-11T10:43:25.813Z,37.00
2023-02-11T10:45:58.788Z,35.55
2023-02-11T10:48:42.807Z,37.05
2023-02-11T10:51:18.889Z,36.13
2023-02-11T10:53:52.447Z,36.90
2023-02-11T10:56:28.224Z,37.97
2023-02-11T10:59:02.459Z,35.90
2023-02-11T11:01:42.886Z,37.43
2023-02-11T11:04:34.115Z,35.15
2023-02-11T11:07:15.052Z,31.05
2023-02-11T11:09:48.773Z,32.25
2023-02-11T11:12:33.331Z,30.40
2023-02-11T11:15:18.368Z,29.25
2023-02-11T11:17:51.361Z,28.95
2023-02-11T11:20:28.816Z,29.00
2023-02-11T11:23:12.518Z,28.45
2023-02-11T11:25:46.908Z,29.85
2023-02-11T11:28:24.374Z,29.30
2023-02-11T11:30:59.009Z,28.67
2023-02-11T11:33:33.728Z,27.10
2023-02-11T11:36:09.067Z,27.45
2023-02-11T11:38:46.367Z,27.37
2023-02-11T11:41:20.779Z,26.90
2023-02-11T11:44:01.414Z,27.43
2023-02-11T11:46:35.614Z,27.73
2023-02-11T11:49:15.143Z,25.87
2023-02-11T11:51:51.258Z,26.60
2023-02-11T11:54:26.596Z,27.43
2023-02-11T11:57:02.079Z,27.90
2023-02-11T11:59:35.440Z,28.67
2023-02-11T12:02:21.017Z,28.40
2023-02-11T12:05:02.072Z,28.40
2023-02-11T12:07:44.642Z,29.10
2023-02-11T12:10:31.167Z,27.17
2023-02-11T12:13:08.644Z,27.20
2023-02-11T12:15:45.768Z,28.20
2023-02-11T12:18:26.024Z,27.27
2023-02-11T12:21:04.601Z,29.53
2023-02-11T12:23:47.453Z,29.10
2023-02-11T12:26:22.082Z,27.05
2023-02-11T12:29:05.103Z,28.15
2023-02-11T12:31:44.419Z,27.15
2023-02-11T12:34:28.077Z,29.25
2023-02-11T12:37:08.027Z,28.07
2023-02-11T12:39:45.533Z,26.95
2023-02-11T12:42:43.066Z,26.00
2023-02-11T12:45:22.811Z,26.45
2023-02-11T12:48:01.239Z,26.43
2023-02-11T12:50:37.502Z,26.20
2023-02-11T12:53:18.923Z,27.25
2023-02-11T12:55:55.368Z,26.10
2023-02-11T12:58:42.914Z,26.10
2023-02-11T13:01:21.063Z,26.43
2023-02-11T13:03:56.384Z,27.13
2023-02-11T13:06:32.219Z,27.15
2023-02-11T13:09:06.839Z,26.05
2023-02-11T13:11:41.612Z,25.45
2023-02-11T13:14:16.930Z,25.20
2023-02-11T13:16:51.036Z,26.65
2023-02-11T13:19:27.897Z,25.40
2023-02-11T13:22:07.342Z,25.50
2023-02-11T13:24:45.854Z,25.00
2023-02-11T13:27:25.089Z,24.90
2023-02-11T13:30:32.781Z,25.25
2023-02-11T13:33:19.216Z,25.50
2023-02-11T13:36:12.476Z,24.95
2023-02-11T13:38:52.831Z,26.10
2023-02-11T13:41:28.220Z,26.00
2023-02-11T13:44:03.510Z,26.55
2023-02-11T13:46:55.951Z,26.05
2023-02-11T13:49:32.210Z,25.00
2023-02-11T13:52:07.511Z,24.55
2023-02-11T13:54:40.703Z,25.10
2023-02-11T13:57:27.591Z,25.70
2023-02-11T14:00:01.357Z,25.10
2023-02-11T14:02:53.382Z,23.55
2023-02-11T14:05:46.444Z,25.15
2023-02-11T14:08:41.553Z,25.75
2023-02-11T14:11:32.386Z,25.35
2023-02-11T14:14:15.534Z,26.70
2023-02-11T14:17:05.252Z,27.10
2023-02-11T14:19:38.745Z,29.50
2023-02-11T14:22:16.648Z,29.95
2023-02-11T14:24:51.105Z,27.77
2023-02-11T14:27:26.818Z,27.20
2023-02-11T14:30:08.047Z,30.10
2023-02-11T14:32:48.451Z,28.80
2023-02-11T14:35:25.117Z,29.60
2023-02-11T14:38:02.474Z,30.50
2023-02-11T14:40:36.503Z,28.80
2023-02-11T14:43:14.171Z,29.50
2023-02-11T14:45:51.375Z,30.30
2023-02-11T14:48:29.090Z,29.95
2023-02-11T14:51:03.540Z,31.67
2023-02-11T14:53:36.566Z,30.15
2023-02-11T14:56:18.084Z,28.65
2023-02-11T14:58:52.078Z,28.30
2023-02-11T15:01:28.739Z,28.05
2023-02-11T15:04:03.179Z,28.85
2023-02-11T15:06:38.267Z,26.75
2023-02-11T15:09:16.525Z,29.05
2023-02-11T15:11:50.743Z,27.17
2023-02-11T15:14:25.629Z,28.85
2023-02-11T15:16:59.164Z,26.70
2023-02-11T15:19:34.697Z,28.23
2023-02-11T15:22:10.867Z,27.07
2023-02-11T15:24:43.852Z,27.60
2023-02-11T15:27:18.667Z,28.40
2023-02-11T15:29:52.278Z,30.77
2023-02-11T15:32:26.162Z,29.87
2023-02-11T15:34:59.272Z,29.23
2023-02-11T15:37:32.491Z,27.67
2023-02-11T15:40:16.689Z,28.45
2023-02-11T15:42:58.438Z,29.30
2023-02-11T15:45:32.916Z,28.85
2023-02-11T15:48:10.850Z,28.50
2023-02-11T15:50:44.695Z,27.60
2023-02-11T15:53:22.438Z,27.73
2023-02-11T15:55:56.812Z,29.50
2023-02-11T15:58:29.936Z,29.57
2023-02-11T16:01:03.115Z,33.50
2023-02-11T16:03:36.917Z,33.95
2023-02-11T16:06:21.026Z,35.77
2023-02-11T16:09:04.604Z,37.00
2023-02-11T16:11:38.810Z,38.30
2023-02-11T16:14:23.064Z,38.05
2023-02-11T16:16:57.066Z,37.23
2023-02-11T16:19:30.255Z,38.70
2023-02-11T16:22:04.809Z,37.15
2023-02-11T16:24:38.754Z,41.05
2023-02-11T16:27:20.191Z,39.05
2023-02-11T16:29:53.867Z,41.25
2023-02-11T16:32:27.535Z,40.45
2023-02-11T16:35:01.934Z,39.67
2023-02-11T16:37:35.707Z,41.25
2023-02-11T16:40:12.047Z,41.57
2023-02-11T16:42:45.350Z,41.43
2023-02-11T16:45:18.536Z,45.35
2023-02-11T16:47:51.731Z,47.80
2023-02-11T16:50:25.917Z,46.00
2023-02-11T16:53:01.171Z,41.53
2023-02-11T16:55:34.935Z,41.25
2023-02-11T16:58:08.582Z,35.50
2023-02-11T17:00:41.852Z,34.93
2023-02-11T17:03:17.528Z,37.00
2023-02-11T17:05:55.679Z,33.90
2023-02-11T17:08:28.383Z,35.75
2023-02-11T17:11:02.713Z,37.00
2023-02-11T17:13:36.743Z,38.30
2023-02-11T17:16:12.906Z,40.23
2023-02-11T17:18:47.242Z,38.23
2023-02-11T17:21:20.392Z,37.20
2023-02-11T17:23:53.786Z,34.80
2023-02-11T17:26:26.790Z,34.85
2023-02-11T17:28:59.550Z,34.70
2023-02-11T17:31:32.264Z,34.50
2023-02-11T17:34:05.517Z,35.30
2023-02-11T17:36:38.704Z,33.55
2023-02-11T17:39:11.931Z,37.00
2023-02-11T17:41:44.877Z,37.20
2023-02-11T17:44:18.275Z,37.65
2023-02-11T17:46:51.136Z,37.00
2023-02-11T17:49:23.839Z,35.45
2023-02-11T17:51:57.022Z,37.00
2023-02-11T17:54:30.219Z,36.80
2023-02-11T17:57:03.408Z,39.70
2023-02-11T17:59:37.407Z,37.60
2023-02-11T18:02:12.075Z,38.90
2023-02-11T18:04:45.506Z,39.45
2023-02-11T18:07:20.058Z,39.45
2023-02-11T18:09:53.418Z,39.75
2023-02-11T18:12:26.842Z,40.10
2023-02-11T18:14:59.617Z,39.33
2023-02-11T18:17:33.012Z,40.50
2023-02-11T18:20:06.814Z,39.75
2023-02-11T18:22:41.442Z,40.25
2023-02-11T18:25:16.008Z,38.55
2023-02-11T18:27:49.051Z,42.50
2023-02-11T18:30:22.648Z,42.85
2023-02-11T18:32:57.135Z,42.50
2023-02-11T18:35:30.256Z,45.30
2023-02-11T18:38:03.458Z,45.65
2023-02-11T18:40:36.842Z,44.50
2023-02-11T18:43:09.828Z,45.75
2023-02-11T18:45:45.792Z,45.37
2023-02-11T18:48:18.956Z,47.75
2023-02-11T18:50:51.648Z,44.63
2023-02-11T18:53:25.258Z,44.75
2023-02-11T18:55:58.028Z,44.60
2023-02-11T18:58:31.428Z,46.15
2023-02-11T19:01:10.783Z,46.97
2023-02-11T19:03:43.740Z,46.55
2023-02-11T19:06:17.802Z,45.80
2023-02-11T19:08:50.735Z,44.90
2023-02-11T19:11:44.206Z,45.53
2023-02-11T19:14:18.089Z,49.45
2023-02-11T19:16:51.826Z,46.90
2023-02-11T19:19:25.605Z,44.65
2023-02-11T19:21:59.219Z,45.95
2023-02-11T19:24:32.395Z,47.80
2023-02-11T19:27:05.380Z,47.77
2023-02-11T19:29:38.781Z,45.80
2023-02-11T19:32:12.177Z,43.27
2023-02-11T19:34:45.566Z,44.93
2023-02-11T19:37:18.823Z,40.77
2023-02-11T19:39:51.942Z,41.55
2023-02-11T19:42:27.555Z,41.55
2023-02-11T19:45:00.784Z,41.07
2023-02-11T19:47:33.557Z,41.60
2023-02-11T19:50:07.635Z,44.43
2023-02-11T19:52:40.723Z,45.30
2023-02-11T19:55:13.544Z,47.95
2023-02-11T19:57:46.816Z,44.20
2023-02-11T20:00:21.851Z,44.93
2023-02-11T20:02:54.841Z,45.20
2023-02-11T20:05:27.733Z,44.90
2023-02-11T20:08:01.123Z,43.23
2023-02-11T20:10:34.309Z,48.13
2023-02-11T20:13:07.497Z,49.17
2023-02-11T20:15:41.173Z,48.45
2023-02-11T20:18:14.694Z,49.80
2023-02-11T20:20:47.883Z,45.40
2023-02-11T20:23:21.080Z,43.47
2023-02-11T20:25:54.425Z,44.60
2023-02-11T20:28:27.687Z,44.87
2023-02-11T20:31:04.253Z,46.05
2023-02-11T20:33:36.904Z,47.10
2023-02-11T20:38:42.059Z,50.27
2023-02-11T20:41:15.975Z,56.95
2023-02-11T20:43:49.866Z,59.27
2023-02-11T20:46:23.926Z,54.45
2023-02-11T20:48:57.910Z,50.30
2023-02-11T20:51:32.762Z,43.75
2023-02-11T20:54:06.928Z,42.83
2023-02-11T20:56:40.323Z,44.25
2023-02-11T20:59:14.419Z,44.35
2023-02-11T21:01:47.960Z,45.85
2023-02-11T21:04:21.793Z,43.97
2023-02-11T21:06:55.531Z,43.97
2023-02-11T21:09:29.148Z,45.10
2023-02-11T21:12:02.562Z,44.65
2023-02-11T21:14:35.717Z,45.53
2023-02-11T21:17:08.906Z,44.07
2023-02-11T21:19:42.095Z,44.85
2023-02-11T21:22:15.084Z,49.40
2023-02-11T21:24:48.272Z,44.17
2023-02-11T21:27:21.469Z,46.83
2023-02-11T21:29:54.922Z,45.90
2023-02-11T21:32:27.638Z,47.57
2023-02-11T21:35:02.371Z,45.17
2023-02-11T21:37:35.862Z,44.40
2023-02-11T21:40:11.566Z,45.00
2023-02-11T21:42:44.696Z,45.85
2023-02-11T21:45:17.885Z,47.83
2023-02-11T21:47:51.079Z,48.65
2023-02-11T21:50:24.082Z,45.83
2023-02-11T21:52:57.456Z,51.45
2023-02-11T21:55:30.648Z,51.65
2023-02-11T21:58:03.833Z,51.35
2023-02-11T22:00:37.057Z,50.37
2023-02-11T22:03:10.217Z,50.00
2023-02-11T22:05:43.811Z,52.57
2023-02-11T22:08:18.563Z,51.45
2023-02-11T22:10:53.058Z,55.65
2023-02-11T22:13:26.249Z,61.97
2023-02-11T22:16:03.157Z,58.90
2023-02-11T22:18:36.926Z,59.90
2023-02-11T22:21:11.552Z,58.37
2023-02-11T22:23:44.743Z,54.90
2023-02-11T22:26:18.754Z,52.70
2023-02-11T22:28:52.350Z,53.67
2023-02-11T22:31:26.009Z,48.50
2023-02-11T22:33:59.342Z,48.55
2023-02-11T22:36:32.934Z,48.33
2023-02-11T22:39:06.737Z,46.73
2023-02-11T22:41:39.925Z,45.90
2023-02-11T22:44:12.725Z,46.13
2023-02-11T22:46:45.337Z,47.60
2023-02-11T22:51:49.055Z,44.75
2023-02-11T22:54:22.189Z,46.70
2023-02-11T22:56:55.391Z,47.15
2023-02-11T22:59:28.565Z,48.00
2023-02-11T23:02:00.758Z,46.30
2023-02-11T23:04:34.129Z,45.83
2023-02-11T23:07:07.316Z,45.83
2023-02-11T23:09:40.501Z,47.27
2023-02-11T23:12:13.485Z,47.75
2023-02-11T23:14:46.854Z,47.57
2023-02-11T23:17:19.724Z,46.97
2023-02-11T23:19:53.466Z,46.85
2023-02-11T23:22:27.268Z,46.03
2023-02-11T23:25:00.664Z,48.30
2023-02-11T23:27:33.646Z,47.85
2023-02-11T23:30:07.653Z,47.10
2023-02-11T23:32:41.140Z,47.55
2023-02-11T23:35:22.224Z,47.07
2023-02-11T23:37:55.416Z,45.85
2023-02-11T23:40:28.606Z,47.60
2023-02-11T23:43:01.797Z,46.85
2023-02-11T23:45:34.823Z,46.83
2023-02-11T23:48:08.179Z,47.10
2023-02-11T23:50:44.444Z,49.10
2023-02-11T23:53:17.223Z,46.35
2023-02-11T23:55:50.412Z,48.30
2023-02-11T23:58:23.604Z,49.25
